createdAt,value
2019-02-21T00:00:11.760Z,3.07
2019-02-21T00:01:11.750Z,3.07
2019-02-21T00:02:11.722Z,3.06
2019-02-21T00:03:11.691Z,3.03
2019-02-21T00:04:11.684Z,3.07
2019-02-21T00:05:11.695Z,3.10
2019-02-21T00:06:11.751Z,3.09
2019-02-21T00:07:11.788Z,3.09
2019-02-21T00:08:11.662Z,3.10
2019-02-21T00:09:11.709Z,3.10
2019-02-21T00:10:11.777Z,3.10
2019-02-21T00:11:11.777Z,3.10
2019-02-21T00:12:11.759Z,3.09
2019-02-21T00:13:11.672Z,3.07
2019-02-21T00:14:11.771Z,3.09
2019-02-21T00:15:11.760Z,3.07
2019-02-21T00:16:11.777Z,3.07
2019-02-21T00:17:11.717Z,3.03
2019-02-21T00:18:11.661Z,3.05
2019-02-21T00:19:11.815Z,3.07
2019-02-21T00:20:11.714Z,3.10
2019-02-21T00:21:11.773Z,3.10
2019-02-21T00:22:11.782Z,3.12
2019-02-21T00:23:11.724Z,3.13
2019-02-21T00:24:11.805Z,3.13
2019-02-21T00:25:11.780Z,3.13
2019-02-21T00:26:11.707Z,3.14
2019-02-21T00:27:11.751Z,3.14
2019-02-21T00:28:11.774Z,3.20
2019-02-21T00:29:11.780Z,3.17
2019-02-21T00:30:11.727Z,3.20
2019-02-21T00:31:11.777Z,3.17
2019-02-21T00:32:11.701Z,3.21
2019-02-21T00:33:11.681Z,3.20
2019-02-21T00:34:11.720Z,3.22
2019-02-21T00:35:11.706Z,3.24
2019-02-21T00:36:11.731Z,3.25
2019-02-21T00:37:11.776Z,3.25
2019-02-21T00:38:11.709Z,3.26
2019-02-21T00:39:11.777Z,3.32
2019-02-21T00:40:11.707Z,3.33
2019-02-21T00:41:11.722Z,3.31
2019-02-21T00:42:11.708Z,3.32
2019-02-21T00:43:11.783Z,3.31
2019-02-21T00:44:11.715Z,3.31
2019-02-21T00:45:11.785Z,3.36
2019-02-21T00:46:11.717Z,3.37
2019-02-21T00:47:11.763Z,3.42
2019-02-21T00:48:11.754Z,3.44
2019-02-21T00:49:11.798Z,3.44
2019-02-21T00:50:11.815Z,3.44
2019-02-21T00:51:11.766Z,3.47
2019-02-21T00:52:11.793Z,3.48
2019-02-21T00:53:11.816Z,3.47
2019-02-21T00:54:11.818Z,3.46
2019-02-21T00:55:11.832Z,3.46
2019-02-21T00:56:11.828Z,3.46
2019-02-21T00:57:11.724Z,3.44
2019-02-21T00:58:11.789Z,3.48
2019-02-21T00:59:11.720Z,3.47
2019-02-21T01:00:11.791Z,3.57
2019-02-21T01:01:11.795Z,3.57
2019-02-21T01:02:11.727Z,3.58
2019-02-21T01:03:11.723Z,3.65
2019-02-21T01:04:11.793Z,3.66
2019-02-21T01:05:11.732Z,3.66
2019-02-21T01:06:11.793Z,3.74
2019-02-21T01:07:11.809Z,3.76
2019-02-21T01:08:11.779Z,3.78
2019-02-21T01:09:11.755Z,3.78
2019-02-21T01:10:11.827Z,3.78
2019-02-21T01:11:11.818Z,3.80
2019-02-21T01:12:11.815Z,3.81
2019-02-21T01:13:11.764Z,3.81
2019-02-21T01:14:11.819Z,3.83
2019-02-21T01:15:11.758Z,3.83
2019-02-21T01:16:11.823Z,3.85
2019-02-21T01:17:11.813Z,3.90
2019-02-21T01:18:11.823Z,3.92
2019-02-21T01:19:11.801Z,3.93
2019-02-21T01:20:11.774Z,3.95
2019-02-21T01:21:11.845Z,3.97
2019-02-21T01:22:11.713Z,3.99
2019-02-21T01:23:11.832Z,3.99
2019-02-21T01:24:11.847Z,4.01
2019-02-21T01:25:11.781Z,4.03
2019-02-21T01:26:11.891Z,4.03
2019-02-21T01:27:11.684Z,4.04
2019-02-21T01:28:11.811Z,4.03
2019-02-21T01:29:11.698Z,4.04
2019-02-21T01:30:11.779Z,4.07
2019-02-21T01:31:11.717Z,4.11
2019-02-21T01:32:11.813Z,4.07
2019-02-21T01:33:11.812Z,4.07
2019-02-21T01:34:11.770Z,4.07
2019-02-21T01:35:11.768Z,4.07
2019-02-21T01:36:11.724Z,4.11
2019-02-21T01:37:11.689Z,4.12
2019-02-21T01:38:11.805Z,4.14
2019-02-21T01:39:11.806Z,4.12
2019-02-21T01:40:11.919Z,4.12
2019-02-21T01:41:11.804Z,4.11
2019-02-21T01:42:11.842Z,4.08
2019-02-21T01:43:11.749Z,4.07
2019-02-21T01:44:11.730Z,4.06
2019-02-21T01:45:11.810Z,4.04
2019-02-21T01:46:11.724Z,4.03
2019-02-21T01:47:11.831Z,4.04
2019-02-21T01:48:11.758Z,4.03
2019-02-21T01:49:11.820Z,4.01
2019-02-21T01:50:11.736Z,4.01
2019-02-21T01:51:11.773Z,4.04
2019-02-21T01:52:11.854Z,4.04
2019-02-21T01:53:11.833Z,4.04
2019-02-21T01:54:11.821Z,4.08
2019-02-21T01:55:11.717Z,4.08
2019-02-21T01:56:11.738Z,4.08
2019-02-21T01:57:11.857Z,4.08
2019-02-21T01:58:11.840Z,4.07
2019-02-21T01:59:11.803Z,4.06
2019-02-21T02:00:11.855Z,4.06
2019-02-21T02:01:11.786Z,4.06
2019-02-21T02:02:11.802Z,4.07
2019-02-21T02:03:11.775Z,4.10
2019-02-21T02:04:11.790Z,4.12
2019-02-21T02:05:11.860Z,4.14
2019-02-21T02:06:11.785Z,4.15
2019-02-21T02:07:11.838Z,4.14
2019-02-21T02:08:11.769Z,4.14
2019-02-21T02:09:11.840Z,4.15
2019-02-21T02:10:11.841Z,4.15
2019-02-21T02:11:11.840Z,4.15
2019-02-21T02:12:11.778Z,4.14
2019-02-21T02:13:23.697Z,4.17
2019-02-21T02:14:11.840Z,4.17
2019-02-21T02:15:11.774Z,4.18
2019-02-21T02:16:11.840Z,4.17
2019-02-21T02:17:11.802Z,4.18
2019-02-21T02:18:11.784Z,4.18
2019-02-21T02:19:11.797Z,4.19
2019-02-21T02:20:11.802Z,4.18
2019-02-21T02:21:11.830Z,4.18
2019-02-21T02:22:11.741Z,4.19
2019-02-21T02:23:11.836Z,4.19
2019-02-21T02:24:11.830Z,4.21
2019-02-21T02:25:11.779Z,4.19
2019-02-21T02:26:11.741Z,4.21
2019-02-21T02:27:11.848Z,4.22
2019-02-21T02:28:11.790Z,4.22
2019-02-21T02:29:11.852Z,4.25
2019-02-21T02:30:11.787Z,4.26
2019-02-21T02:31:22.271Z,4.25
2019-02-21T02:32:11.789Z,4.26
2019-02-21T02:33:11.879Z,4.26
2019-02-21T02:34:11.792Z,4.26
2019-02-21T02:35:11.862Z,4.29
2019-02-21T02:36:11.856Z,4.30
2019-02-21T02:37:11.761Z,4.30
2019-02-21T02:38:11.826Z,4.29
2019-02-21T02:39:11.816Z,4.32
2019-02-21T02:40:11.811Z,4.32
2019-02-21T02:41:11.747Z,4.35
2019-02-21T02:42:11.814Z,4.36
2019-02-21T02:43:11.720Z,4.35
2019-02-21T02:44:11.759Z,4.36
2019-02-21T02:45:11.759Z,4.39
2019-02-21T02:46:11.721Z,4.40
2019-02-21T02:47:11.871Z,4.43
2019-02-21T02:48:11.801Z,4.41
2019-02-21T02:49:11.822Z,4.43
2019-02-21T02:50:11.871Z,4.46
2019-02-21T02:51:11.822Z,4.47
2019-02-21T02:52:11.795Z,4.47
2019-02-21T02:53:11.868Z,4.47
2019-02-21T02:54:12.020Z,4.47
2019-02-21T02:55:11.877Z,4.47
2019-02-21T02:56:11.801Z,4.48
2019-02-21T02:57:11.919Z,4.51
2019-02-21T02:58:11.846Z,4.57
2019-02-21T02:59:11.920Z,4.62
2019-02-21T03:00:11.870Z,4.63
2019-02-21T03:01:11.921Z,4.64
2019-02-21T03:02:11.831Z,4.67
2019-02-21T03:03:11.827Z,4.73
2019-02-21T03:04:11.899Z,4.74
2019-02-21T03:05:11.835Z,4.78
2019-02-21T03:06:11.835Z,4.82
2019-02-21T03:07:11.779Z,4.82
2019-02-21T03:08:11.877Z,4.84
2019-02-21T03:09:11.789Z,4.84
2019-02-21T03:10:11.904Z,4.87
2019-02-21T03:11:11.904Z,4.87
2019-02-21T03:12:11.834Z,4.89
2019-02-21T03:13:11.839Z,4.91
2019-02-21T03:14:11.921Z,4.92
2019-02-21T03:15:11.839Z,4.93
2019-02-21T03:16:11.896Z,4.93
2019-02-21T03:17:11.846Z,4.96
2019-02-21T03:18:11.886Z,4.95
2019-02-21T03:19:11.791Z,4.96
2019-02-21T03:20:11.908Z,4.96
2019-02-21T03:21:11.906Z,4.98
2019-02-21T03:22:11.917Z,4.98
2019-02-21T03:23:11.814Z,4.99
2019-02-21T03:24:11.865Z,4.99
2019-02-21T03:25:11.874Z,4.99
2019-02-21T03:26:11.931Z,4.98
2019-02-21T03:27:11.816Z,4.98
2019-02-21T03:28:11.845Z,4.96
2019-02-21T03:29:11.845Z,4.96
2019-02-21T03:30:12.809Z,4.96
2019-02-21T03:31:11.946Z,4.95
2019-02-21T03:32:11.915Z,4.93
2019-02-21T03:33:11.893Z,4.93
2019-02-21T03:34:11.856Z,4.95
2019-02-21T03:35:11.863Z,4.92
2019-02-21T03:36:11.920Z,4.89
2019-02-21T03:37:11.858Z,4.89
2019-02-21T03:38:11.977Z,4.87
2019-02-21T03:39:11.845Z,4.84
2019-02-21T03:40:11.917Z,4.82
2019-02-21T03:41:11.846Z,4.82
2019-02-21T03:42:11.906Z,4.81
2019-02-21T03:43:11.919Z,4.78
2019-02-21T03:44:11.846Z,4.80
2019-02-21T03:45:11.916Z,4.77
2019-02-21T03:46:11.845Z,4.77
2019-02-21T03:47:11.929Z,4.75
2019-02-21T03:48:11.890Z,4.74
2019-02-21T03:49:11.813Z,4.74
2019-02-21T03:50:11.969Z,4.75
2019-02-21T03:51:11.907Z,4.74
2019-02-21T03:52:11.810Z,4.75
2019-02-21T03:53:11.878Z,4.75
2019-02-21T03:54:11.819Z,4.75
2019-02-21T03:55:11.915Z,4.75
2019-02-21T03:56:11.859Z,4.74
2019-02-21T03:57:11.871Z,4.71
2019-02-21T03:58:11.762Z,4.71
2019-02-21T03:59:11.855Z,4.70
2019-02-21T04:00:11.960Z,4.69
2019-02-21T04:01:11.857Z,4.67
2019-02-21T04:02:11.916Z,4.64
2019-02-21T04:03:11.919Z,4.66
2019-02-21T04:04:11.871Z,4.63
2019-02-21T04:05:11.924Z,4.62
2019-02-21T04:06:11.859Z,4.60
2019-02-21T04:07:11.855Z,4.60
2019-02-21T04:08:11.898Z,4.63
2019-02-21T04:09:11.886Z,4.64
2019-02-21T04:10:11.946Z,4.63
2019-02-21T04:11:11.924Z,4.63
2019-02-21T04:12:11.955Z,4.63
2019-02-21T04:13:14.438Z,4.60
2019-02-21T04:14:11.925Z,4.62
2019-02-21T04:15:11.946Z,4.62
2019-02-21T04:16:11.949Z,4.60
2019-02-21T04:17:11.901Z,4.60
2019-02-21T04:18:11.865Z,4.59
2019-02-21T04:19:11.933Z,4.59
2019-02-21T04:20:11.867Z,4.57
2019-02-21T04:21:11.932Z,4.57
2019-02-21T04:22:11.931Z,4.57
2019-02-21T04:23:11.868Z,4.57
2019-02-21T04:24:11.939Z,4.59
2019-02-21T04:25:11.869Z,4.57
2019-02-21T04:26:11.937Z,4.57
2019-02-21T04:27:11.879Z,4.57
2019-02-21T04:28:11.938Z,4.60
2019-02-21T04:29:11.942Z,4.57
2019-02-21T04:30:11.821Z,4.57
2019-02-21T04:31:11.866Z,4.57
2019-02-21T04:32:16.869Z,4.59
2019-02-21T04:33:11.847Z,4.59
2019-02-21T04:34:11.944Z,4.59
2019-02-21T04:35:11.926Z,4.59
2019-02-21T04:36:11.940Z,4.59
2019-02-21T04:37:11.848Z,4.57
2019-02-21T04:38:11.906Z,4.55
2019-02-21T04:39:11.889Z,4.52
2019-02-21T04:40:11.902Z,4.51
2019-02-21T04:41:11.947Z,4.50
2019-02-21T04:42:11.876Z,4.48
2019-02-21T04:43:11.902Z,4.46
2019-02-21T04:44:11.917Z,4.44
2019-02-21T04:45:11.989Z,4.43
2019-02-21T04:46:11.863Z,4.40
2019-02-21T04:47:11.890Z,4.36
2019-02-21T04:48:11.958Z,4.32
2019-02-21T04:49:11.884Z,4.28
2019-02-21T04:50:11.954Z,4.25
2019-02-21T04:51:11.950Z,4.21
2019-02-21T04:52:11.958Z,4.21
2019-02-21T04:53:11.966Z,4.21
2019-02-21T04:54:11.897Z,4.17
2019-02-21T04:55:12.012Z,4.12
2019-02-21T04:56:11.896Z,4.08
2019-02-21T04:57:11.956Z,4.04
2019-02-21T04:58:11.910Z,4.01
2019-02-21T04:59:11.978Z,4.00
2019-02-21T05:00:11.897Z,3.97
2019-02-21T05:01:11.961Z,3.95
2019-02-21T05:02:11.963Z,3.92
2019-02-21T05:03:11.959Z,3.90
2019-02-21T05:04:11.962Z,3.89
2019-02-21T05:05:12.005Z,3.87
2019-02-21T05:06:12.115Z,3.85
2019-02-21T05:07:11.927Z,3.81
2019-02-21T05:08:11.991Z,3.80
2019-02-21T05:09:11.922Z,3.77
2019-02-21T05:10:11.991Z,3.76
2019-02-21T05:11:12.009Z,3.74
2019-02-21T05:12:12.001Z,3.73
2019-02-21T05:13:11.934Z,3.68
2019-02-21T05:14:11.939Z,3.69
2019-02-21T05:15:14.019Z,3.66
2019-02-21T05:16:11.949Z,3.64
2019-02-21T05:17:11.872Z,3.59
2019-02-21T05:18:12.010Z,3.58
2019-02-21T05:19:11.915Z,3.57
2019-02-21T05:20:11.935Z,3.54
2019-02-21T05:21:11.959Z,3.51
2019-02-21T05:22:11.994Z,3.50
2019-02-21T05:23:11.978Z,3.47
2019-02-21T05:24:11.919Z,3.43
2019-02-21T05:25:12.010Z,3.40
2019-02-21T05:26:12.000Z,3.36
2019-02-21T05:27:11.943Z,3.31
2019-02-21T05:28:11.973Z,3.29
2019-02-21T05:29:11.929Z,3.26
2019-02-21T05:30:11.977Z,3.24
2019-02-21T05:31:11.981Z,3.20
2019-02-21T05:32:11.969Z,3.12
2019-02-21T05:33:11.932Z,3.07
2019-02-21T05:34:11.985Z,3.02
2019-02-21T05:35:11.986Z,2.98
2019-02-21T05:36:11.902Z,2.92
2019-02-21T05:37:11.975Z,2.85
2019-02-21T05:38:11.875Z,2.83
2019-02-21T05:39:11.982Z,2.80
2019-02-21T05:40:11.912Z,2.76
2019-02-21T05:41:11.909Z,2.70
2019-02-21T05:42:11.890Z,2.69
2019-02-21T05:43:11.987Z,2.63
2019-02-21T05:44:12.121Z,2.62
2019-02-21T05:45:11.889Z,2.57
2019-02-21T05:46:11.984Z,2.55
2019-02-21T05:47:11.944Z,2.59
2019-02-21T05:48:12.011Z,2.65
2019-02-21T05:49:12.042Z,2.63
2019-02-21T05:50:12.024Z,2.68
2019-02-21T05:51:11.997Z,2.73
2019-02-21T05:52:11.955Z,2.77
2019-02-21T05:53:12.010Z,2.80
2019-02-21T05:54:12.834Z,2.79
2019-02-21T05:55:11.904Z,2.73
2019-02-21T05:56:11.939Z,2.66
2019-02-21T05:57:12.022Z,2.63
2019-02-21T05:58:12.854Z,2.57
2019-02-21T05:59:11.995Z,2.54
2019-02-21T06:00:11.873Z,2.54
2019-02-21T06:01:11.947Z,2.50
2019-02-21T06:02:11.967Z,2.47
2019-02-21T06:03:11.979Z,2.42
2019-02-21T06:04:11.882Z,2.39
2019-02-21T06:05:11.959Z,2.33
2019-02-21T06:06:11.914Z,2.26
2019-02-21T06:07:11.932Z,2.21
2019-02-21T06:08:12.008Z,2.17
2019-02-21T06:09:11.944Z,2.13
2019-02-21T06:10:12.012Z,2.08
2019-02-21T06:11:12.009Z,2.06
2019-02-21T06:12:11.938Z,2.02
2019-02-21T06:13:11.943Z,1.98
2019-02-21T06:14:12.018Z,1.94
2019-02-21T06:15:11.957Z,1.88
2019-02-21T06:16:12.028Z,1.84
2019-02-21T06:17:11.955Z,1.86
2019-02-21T06:18:11.986Z,1.86
2019-02-21T06:19:11.979Z,1.86
2019-02-21T06:20:12.047Z,1.88
2019-02-21T06:21:11.982Z,1.97
2019-02-21T06:22:11.975Z,2.02
2019-02-21T06:23:12.013Z,2.04
2019-02-21T06:24:12.032Z,2.04
2019-02-21T06:25:12.039Z,2.06
2019-02-21T06:26:12.039Z,2.12
2019-02-21T06:27:12.349Z,2.12
2019-02-21T06:28:12.029Z,2.13
2019-02-21T06:29:12.024Z,2.20
2019-02-21T06:30:12.024Z,2.24
2019-02-21T06:31:11.926Z,2.28
2019-02-21T06:32:14.519Z,2.39
2019-02-21T06:33:11.994Z,2.39
2019-02-21T06:34:11.990Z,2.38
2019-02-21T06:35:11.993Z,2.40
2019-02-21T06:36:11.998Z,2.42
2019-02-21T06:37:12.775Z,2.43
2019-02-21T06:38:12.016Z,2.44
2019-02-21T06:39:11.949Z,2.51
2019-02-21T06:40:11.960Z,2.57
2019-02-21T06:41:11.896Z,2.61
2019-02-21T06:42:12.006Z,2.61
2019-02-21T06:43:11.958Z,2.62
2019-02-21T06:44:11.979Z,2.66
2019-02-21T06:45:11.961Z,2.69
2019-02-21T06:46:13.733Z,2.69
2019-02-21T06:47:12.018Z,2.70
2019-02-21T06:48:11.966Z,2.72
2019-02-21T06:49:12.035Z,2.73
2019-02-21T06:50:14.300Z,2.73
2019-02-21T06:51:11.970Z,2.76
2019-02-21T06:52:12.042Z,2.76
2019-02-21T06:53:11.969Z,2.77
2019-02-21T06:54:12.042Z,2.77
2019-02-21T06:55:11.964Z,2.80
2019-02-21T06:56:12.039Z,2.79
2019-02-21T06:57:11.978Z,2.79
2019-02-21T06:58:12.037Z,2.81
2019-02-21T06:59:12.028Z,2.83
2019-02-21T07:00:12.042Z,2.83
2019-02-21T07:01:12.099Z,2.83
2019-02-21T07:02:13.673Z,2.87
2019-02-21T07:03:15.834Z,2.90
2019-02-21T07:04:11.967Z,2.95
2019-02-21T07:05:11.933Z,2.99
2019-02-21T07:06:12.034Z,3.05
2019-02-21T07:07:12.121Z,3.10
2019-02-21T07:08:11.995Z,3.16
2019-02-21T07:09:11.974Z,3.22
2019-02-21T07:10:12.082Z,3.26
2019-02-21T07:11:11.951Z,3.32
2019-02-21T07:12:12.053Z,3.35
2019-02-21T07:13:11.970Z,3.39
2019-02-21T07:14:11.991Z,3.42
2019-02-21T07:15:12.088Z,3.46
2019-02-21T07:16:13.190Z,3.48
2019-02-21T07:17:12.092Z,3.51
2019-02-21T07:18:12.027Z,3.55
2019-02-21T07:19:12.024Z,3.59
2019-02-21T07:20:12.966Z,3.64
2019-02-21T07:21:13.301Z,3.66
2019-02-21T07:22:17.727Z,3.74
2019-02-21T07:23:12.089Z,3.77
2019-02-21T07:24:12.077Z,3.81
2019-02-21T07:25:12.000Z,3.84
2019-02-21T07:26:12.001Z,3.87
2019-02-21T07:27:12.096Z,3.89
2019-02-21T07:28:15.574Z,3.92
2019-02-21T07:29:11.992Z,3.93
2019-02-21T07:30:19.499Z,3.93
2019-02-21T07:31:12.040Z,3.95
2019-02-21T07:32:12.048Z,3.99
2019-02-21T07:33:12.012Z,4.00
2019-02-21T07:34:11.991Z,4.01
2019-02-21T07:35:11.962Z,4.01
2019-02-21T07:36:12.010Z,4.04
2019-02-21T07:37:18.711Z,4.06
2019-02-21T07:38:11.996Z,4.08
2019-02-21T07:39:18.379Z,4.11
2019-02-21T07:40:19.707Z,4.14
2019-02-21T07:41:12.096Z,4.17
2019-02-21T07:42:11.950Z,4.18
2019-02-21T07:43:12.864Z,4.22
2019-02-21T07:44:12.624Z,4.26
2019-02-21T07:45:12.284Z,4.29
2019-02-21T07:46:12.061Z,4.32
2019-02-21T07:47:12.072Z,4.37
2019-02-21T07:48:11.976Z,4.43
2019-02-21T07:49:11.930Z,4.47
2019-02-21T07:50:11.967Z,4.54
2019-02-21T07:51:13.497Z,4.59
2019-02-21T07:52:12.020Z,4.64
2019-02-21T07:53:11.937Z,4.70
2019-02-21T07:54:12.026Z,4.74
2019-02-21T07:55:12.030Z,4.78
2019-02-21T07:56:11.904Z,4.84
2019-02-21T07:57:12.035Z,4.88
2019-02-21T07:58:12.079Z,4.93
2019-02-21T07:59:12.331Z,4.98
2019-02-21T08:00:12.041Z,5.00
2019-02-21T08:01:12.040Z,5.02
2019-02-21T08:02:11.955Z,5.06
2019-02-21T08:03:11.963Z,5.10
2019-02-21T08:04:11.971Z,5.14
2019-02-21T08:05:11.992Z,5.16
2019-02-21T08:06:12.025Z,5.19
2019-02-21T08:07:12.057Z,5.22
2019-02-21T08:08:12.091Z,5.25
2019-02-21T08:09:12.000Z,5.29
2019-02-21T08:10:12.127Z,5.35
2019-02-21T08:11:12.116Z,5.35
2019-02-21T08:12:12.046Z,5.38
2019-02-21T08:13:12.026Z,5.41
2019-02-21T08:14:12.119Z,5.42
2019-02-21T08:15:12.192Z,5.45
2019-02-21T08:16:12.607Z,5.46
2019-02-21T08:17:12.036Z,5.48
2019-02-21T08:18:11.952Z,5.49
2019-02-21T08:19:12.003Z,5.53
2019-02-21T08:20:12.050Z,5.55
2019-02-21T08:21:12.054Z,5.56
2019-02-21T08:22:12.042Z,5.59
2019-02-21T08:23:12.027Z,5.62
2019-02-21T08:24:11.995Z,5.62
2019-02-21T08:25:12.061Z,5.64
2019-02-21T08:26:12.008Z,5.66
2019-02-21T08:27:12.065Z,5.68
2019-02-21T08:28:12.107Z,5.70
2019-02-21T08:29:12.050Z,5.70
2019-02-21T08:30:12.109Z,5.74
2019-02-21T08:31:12.066Z,5.75
2019-02-21T08:32:12.122Z,5.77
2019-02-21T08:33:12.042Z,5.79
2019-02-21T08:34:12.126Z,5.82
2019-02-21T08:35:12.038Z,5.86
2019-02-21T08:36:12.110Z,5.92
2019-02-21T08:37:12.042Z,5.96
2019-02-21T08:38:12.321Z,5.99
2019-02-21T08:39:12.039Z,6.03
2019-02-21T08:40:12.117Z,6.09
2019-02-21T08:41:14.481Z,6.15
2019-02-21T08:42:12.119Z,6.18
2019-02-21T08:43:12.049Z,6.20
2019-02-21T08:44:12.116Z,6.18
2019-02-21T08:45:12.119Z,6.23
2019-02-21T08:46:12.048Z,6.25
2019-02-21T08:47:12.120Z,6.27
2019-02-21T08:48:13.449Z,6.33
2019-02-21T08:49:12.062Z,6.33
2019-02-21T08:50:12.084Z,6.31
2019-02-21T08:51:12.007Z,6.36
2019-02-21T08:52:11.989Z,6.38
2019-02-21T08:53:13.018Z,6.41
2019-02-21T08:54:12.124Z,6.41
2019-02-21T08:55:11.989Z,6.44
2019-02-21T08:56:12.014Z,6.44
2019-02-21T08:57:12.048Z,6.45
2019-02-21T08:58:12.088Z,6.44
2019-02-21T08:59:12.141Z,6.44
2019-02-21T09:00:12.104Z,6.44
2019-02-21T09:01:12.102Z,6.44
2019-02-21T09:02:12.028Z,6.44
2019-02-21T09:03:12.096Z,6.45
2019-02-21T09:04:26.358Z,6.47
2019-02-21T09:05:12.093Z,6.48
2019-02-21T09:06:12.094Z,6.47
2019-02-21T09:07:12.163Z,6.48
2019-02-21T09:08:12.131Z,6.51
2019-02-21T09:09:12.118Z,6.55
2019-02-21T09:10:12.090Z,6.55
2019-02-21T09:11:12.117Z,6.55
2019-02-21T09:12:12.134Z,6.56
2019-02-21T09:13:12.068Z,6.57
2019-02-21T09:14:12.135Z,6.59
2019-02-21T09:15:12.108Z,6.59
2019-02-21T09:16:12.022Z,6.61
2019-02-21T09:17:12.126Z,6.66
2019-02-21T09:18:12.022Z,6.70
2019-02-21T09:19:12.080Z,6.74
2019-02-21T09:20:12.149Z,6.86
2019-02-21T09:21:12.077Z,6.98
2019-02-21T09:22:12.146Z,7.18
2019-02-21T09:23:12.146Z,7.40
2019-02-21T09:24:13.863Z,7.70
2019-02-21T09:25:12.148Z,7.99
2019-02-21T09:26:12.155Z,8.27
2019-02-21T09:27:12.218Z,8.47
2019-02-21T09:28:12.158Z,8.72
2019-02-21T09:29:12.087Z,8.83
2019-02-21T09:30:12.161Z,8.91
2019-02-21T09:31:12.171Z,9.02
2019-02-21T09:32:12.105Z,9.13
2019-02-21T09:33:17.382Z,9.20
2019-02-21T09:34:20.851Z,9.19
2019-02-21T09:35:12.095Z,9.23
2019-02-21T09:36:12.128Z,9.25
2019-02-21T09:37:12.090Z,9.23
2019-02-21T09:38:12.172Z,9.15
2019-02-21T09:39:12.099Z,9.30
2019-02-21T09:40:12.154Z,9.40
2019-02-21T09:41:12.155Z,9.60
2019-02-21T09:42:12.085Z,9.62
2019-02-21T09:43:12.156Z,9.69
2019-02-21T09:44:12.101Z,9.80
2019-02-21T09:45:12.159Z,9.95
2019-02-21T09:46:12.069Z,10.27
2019-02-21T09:47:12.158Z,10.57
2019-02-21T09:48:12.241Z,10.95
2019-02-21T09:49:12.091Z,11.21
2019-02-21T09:50:12.158Z,11.40
2019-02-21T09:51:12.039Z,11.29
2019-02-21T09:52:12.112Z,11.07
2019-02-21T09:53:12.133Z,10.91
2019-02-21T09:54:12.088Z,10.88
2019-02-21T09:55:12.114Z,11.00
2019-02-21T09:56:12.107Z,11.06
2019-02-21T09:57:13.513Z,11.27
2019-02-21T09:58:12.206Z,11.54
2019-02-21T09:59:12.192Z,11.78
2019-02-21T10:00:12.081Z,11.84
2019-02-21T10:01:12.182Z,11.86
2019-02-21T10:02:12.192Z,11.79
2019-02-21T10:03:12.198Z,11.68
2019-02-21T10:04:12.255Z,11.68
2019-02-21T10:05:12.199Z,11.67
2019-02-21T10:06:12.126Z,11.73
2019-02-21T10:07:12.112Z,11.73
2019-02-21T10:08:12.197Z,11.79
2019-02-21T10:09:12.185Z,11.86
2019-02-21T10:10:12.186Z,11.87
2019-02-21T10:11:12.114Z,11.92
2019-02-21T10:12:12.186Z,11.94
2019-02-21T10:13:13.274Z,12.01
2019-02-21T10:14:12.189Z,11.98
2019-02-21T10:15:12.202Z,12.03
2019-02-21T10:16:12.195Z,12.02
2019-02-21T10:17:12.194Z,12.10
2019-02-21T10:18:12.117Z,12.08
2019-02-21T10:19:12.171Z,11.97
2019-02-21T10:20:12.181Z,11.91
2019-02-21T10:21:12.131Z,11.87
2019-02-21T10:22:12.124Z,11.91
2019-02-21T10:23:12.172Z,11.94
2019-02-21T10:24:12.152Z,11.92
2019-02-21T10:25:12.128Z,11.83
2019-02-21T10:26:12.090Z,11.58
2019-02-21T10:27:12.059Z,11.50
2019-02-21T10:28:12.069Z,11.56
2019-02-21T10:29:12.069Z,11.53
2019-02-21T10:30:13.412Z,11.45
2019-02-21T10:31:12.098Z,11.32
2019-02-21T10:32:12.176Z,11.22
2019-02-21T10:33:12.158Z,11.11
2019-02-21T10:34:12.190Z,11.11
2019-02-21T10:35:12.125Z,11.17
2019-02-21T10:36:12.206Z,11.17
2019-02-21T10:37:12.068Z,11.31
2019-02-21T10:38:12.079Z,11.28
2019-02-21T10:39:12.154Z,11.25
2019-02-21T10:40:12.136Z,11.32
2019-02-21T10:41:12.129Z,11.39
2019-02-21T10:42:12.200Z,11.51
2019-02-21T10:43:12.131Z,11.58
2019-02-21T10:44:12.131Z,11.65
2019-02-21T10:45:12.137Z,11.64
2019-02-21T10:46:12.199Z,11.67
2019-02-21T10:47:12.134Z,11.72
2019-02-21T10:48:12.207Z,11.83
2019-02-21T10:49:12.232Z,11.95
2019-02-21T10:50:14.052Z,12.02
2019-02-21T10:51:12.134Z,11.97
2019-02-21T10:52:12.206Z,11.83
2019-02-21T10:53:12.211Z,11.86
2019-02-21T10:54:12.144Z,11.97
2019-02-21T10:55:12.213Z,12.08
2019-02-21T10:56:12.154Z,12.08
2019-02-21T10:57:12.213Z,11.97
2019-02-21T10:58:12.149Z,11.76
2019-02-21T10:59:12.193Z,11.76
2019-02-21T11:00:12.159Z,11.80
2019-02-21T11:01:12.075Z,11.91
2019-02-21T11:02:12.385Z,12.01
2019-02-21T11:03:12.165Z,12.13
2019-02-21T11:04:12.084Z,12.32
2019-02-21T11:05:12.180Z,12.28
2019-02-21T11:06:12.111Z,12.14
2019-02-21T11:07:12.149Z,12.08
2019-02-21T11:08:12.172Z,12.05
2019-02-21T11:09:12.218Z,11.89
2019-02-21T11:10:12.146Z,11.71
2019-02-21T11:11:12.220Z,11.61
2019-02-21T11:12:12.219Z,11.57
2019-02-21T11:13:12.150Z,11.54
2019-02-21T11:14:12.148Z,11.51
2019-02-21T11:15:12.222Z,11.46
2019-02-21T11:16:12.155Z,11.46
2019-02-21T11:17:12.222Z,11.49
2019-02-21T11:18:12.150Z,11.50
2019-02-21T11:19:12.225Z,11.51
2019-02-21T11:20:12.234Z,11.53
2019-02-21T11:21:12.232Z,11.56
2019-02-21T11:22:12.233Z,11.56
2019-02-21T11:23:12.179Z,11.56
2019-02-21T11:24:12.164Z,11.53
2019-02-21T11:25:12.237Z,11.56
2019-02-21T11:26:12.170Z,11.57
2019-02-21T11:27:12.237Z,11.51
2019-02-21T11:28:12.177Z,11.47
2019-02-21T11:29:12.174Z,11.46
2019-02-21T11:30:12.239Z,11.50
2019-02-21T11:31:12.242Z,11.50
2019-02-21T11:32:12.243Z,11.51
2019-02-21T11:33:12.255Z,11.50
2019-02-21T11:34:12.245Z,11.50
2019-02-21T11:35:12.245Z,11.50
2019-02-21T11:36:12.250Z,11.50
2019-02-21T11:37:12.194Z,11.51
2019-02-21T11:38:12.192Z,11.53
2019-02-21T11:39:12.164Z,11.47
2019-02-21T11:40:12.234Z,11.45
2019-02-21T11:41:12.243Z,11.42
2019-02-21T11:42:12.126Z,11.42
2019-02-21T11:43:12.239Z,11.40
2019-02-21T11:44:12.173Z,11.38
2019-02-21T11:45:12.168Z,11.40
2019-02-21T11:46:12.177Z,11.43
2019-02-21T11:47:12.245Z,11.43
2019-02-21T11:48:12.262Z,11.46
2019-02-21T11:49:12.253Z,11.46
2019-02-21T11:50:12.258Z,11.49
2019-02-21T11:51:12.264Z,11.50
2019-02-21T11:52:12.280Z,11.51
2019-02-21T11:53:12.156Z,11.47
2019-02-21T11:54:14.574Z,11.45
2019-02-21T11:55:12.205Z,11.46
2019-02-21T11:56:12.210Z,11.45
2019-02-21T11:57:12.259Z,11.45
2019-02-21T11:58:12.200Z,11.42
2019-02-21T11:59:12.259Z,11.42
2019-02-21T12:00:12.193Z,11.46
2019-02-21T12:01:12.182Z,11.43
2019-02-21T12:02:12.254Z,11.46
2019-02-21T12:03:12.276Z,11.49
2019-02-21T12:04:12.275Z,11.50
2019-02-21T12:05:17.426Z,11.51
2019-02-21T12:06:12.187Z,11.51
2019-02-21T12:07:12.260Z,11.45
2019-02-21T12:08:12.195Z,11.43
2019-02-21T12:09:12.279Z,11.43
2019-02-21T12:10:12.273Z,11.42
2019-02-21T12:11:12.219Z,11.36
2019-02-21T12:12:12.219Z,11.33
2019-02-21T12:13:12.204Z,11.33
2019-02-21T12:14:12.284Z,11.33
2019-02-21T12:15:12.218Z,11.35
2019-02-21T12:16:12.343Z,11.35
2019-02-21T12:17:12.280Z,11.35
2019-02-21T12:18:12.276Z,11.39
2019-02-21T12:19:12.200Z,11.40
2019-02-21T12:20:12.284Z,11.45
2019-02-21T12:21:12.196Z,11.45
2019-02-21T12:22:12.267Z,11.49
2019-02-21T12:23:12.218Z,11.50
2019-02-21T12:24:12.272Z,11.54
2019-02-21T12:25:12.210Z,11.56
2019-02-21T12:26:12.335Z,11.57
2019-02-21T12:27:12.274Z,11.57
2019-02-21T12:28:12.209Z,11.58
2019-02-21T12:29:12.230Z,11.62
2019-02-21T12:30:12.285Z,11.68
2019-02-21T12:31:12.170Z,11.73
2019-02-21T12:32:12.296Z,11.83
2019-02-21T12:33:12.290Z,11.92
2019-02-21T12:34:12.303Z,12.01
2019-02-21T12:35:12.302Z,12.09
2019-02-21T12:36:12.291Z,12.16
2019-02-21T12:37:12.188Z,12.16
2019-02-21T12:38:12.300Z,12.13
2019-02-21T12:39:12.300Z,12.18
2019-02-21T12:40:12.219Z,12.20
2019-02-21T12:41:12.257Z,12.25
2019-02-21T12:42:12.299Z,12.31
2019-02-21T12:43:12.224Z,12.42
2019-02-21T12:44:12.302Z,12.54
2019-02-21T12:45:12.253Z,12.58
2019-02-21T12:46:12.225Z,12.66
2019-02-21T12:47:12.302Z,12.75
2019-02-21T12:48:12.307Z,12.68
2019-02-21T12:49:12.294Z,12.62
2019-02-21T12:50:12.232Z,12.61
2019-02-21T12:51:12.294Z,12.50
2019-02-21T12:52:12.294Z,12.51
2019-02-21T12:53:12.291Z,12.57
2019-02-21T12:54:12.225Z,12.51
2019-02-21T12:55:12.298Z,12.40
2019-02-21T12:56:12.338Z,12.40
2019-02-21T12:57:12.295Z,12.39
2019-02-21T12:58:12.222Z,12.42
2019-02-21T12:59:12.255Z,12.44
2019-02-21T13:00:12.326Z,12.44
2019-02-21T13:01:12.235Z,12.40
2019-02-21T13:02:12.322Z,12.39
2019-02-21T13:03:12.242Z,12.37
2019-02-21T13:04:12.241Z,12.32
2019-02-21T13:05:12.322Z,12.36
2019-02-21T13:06:12.258Z,12.40
2019-02-21T13:07:12.257Z,12.36
2019-02-21T13:08:12.323Z,12.29
2019-02-21T13:09:12.244Z,12.28
2019-02-21T13:10:12.329Z,12.29
2019-02-21T13:11:12.313Z,12.22